createdAt,value
2023-04-18T00:01:10.939Z,7.60
2023-04-18T00:03:40.563Z,7.61
2023-04-18T00:06:07.212Z,7.62
2023-04-18T00:08:34.031Z,7.55
2023-04-18T00:11:00.418Z,7.61
2023-04-18T00:13:28.380Z,7.65
2023-04-18T00:15:55.084Z,7.68
2023-04-18T00:18:21.973Z,7.67
2023-04-18T00:20:48.407Z,7.61
2023-04-18T00:23:14.949Z,7.59
2023-04-18T00:25:41.428Z,7.54
2023-04-18T00:28:07.934Z,7.53
2023-04-18T00:30:34.460Z,7.54
2023-04-18T00:33:04.427Z,7.55
2023-04-18T00:35:31.894Z,7.54
2023-04-18T00:37:58.530Z,7.51
2023-04-18T00:40:25.280Z,7.50
2023-04-18T00:42:51.684Z,7.50
2023-04-18T00:45:18.086Z,7.49
2023-04-18T00:47:44.556Z,7.50
2023-04-18T00:50:11.945Z,7.49
2023-04-18T00:52:38.760Z,7.50
2023-04-18T00:55:07.452Z,7.50
2023-04-18T00:57:34.856Z,7.45
2023-04-18T01:00:09.302Z,7.47
2023-04-18T01:02:36.944Z,7.44
2023-04-18T01:05:04.210Z,7.43
2023-04-18T01:07:33.370Z,7.45
2023-04-18T01:10:01.541Z,7.47
2023-04-18T01:12:27.994Z,7.53
2023-04-18T01:14:54.500Z,7.54
2023-04-18T01:17:22.441Z,7.57
2023-04-18T01:19:51.111Z,7.52
2023-04-18T01:22:19.666Z,7.52
2023-04-18T01:24:46.088Z,7.50
2023-04-18T01:27:15.992Z,7.48
2023-04-18T01:29:42.486Z,7.45
2023-04-18T01:32:08.939Z,7.45
2023-04-18T01:34:36.577Z,7.46
2023-04-18T01:37:05.619Z,7.43
2023-04-18T01:39:32.748Z,7.42
2023-04-18T01:42:01.250Z,7.40
2023-04-18T01:44:27.710Z,7.38
2023-04-18T01:46:54.147Z,7.37
2023-04-18T01:49:20.593Z,7.41
2023-04-18T01:51:49.150Z,7.39
2023-04-18T01:54:15.844Z,7.40
2023-04-18T01:56:42.644Z,7.38
2023-04-18T01:59:09.122Z,7.38
2023-04-18T02:01:35.540Z,7.39
2023-04-18T02:04:02.014Z,7.41
2023-04-18T02:06:28.600Z,7.44
2023-04-18T02:08:55.051Z,7.43
2023-04-18T02:11:24.667Z,7.43
2023-04-18T02:13:52.274Z,7.40
2023-04-18T02:16:18.756Z,7.37
2023-04-18T02:18:45.381Z,7.38
2023-04-18T02:21:13.381Z,7.38
2023-04-18T02:23:39.832Z,7.36
2023-04-18T02:26:06.594Z,7.32
2023-04-18T02:28:33.188Z,7.31
2023-04-18T02:31:02.928Z,7.28
2023-04-18T02:33:29.363Z,7.31
2023-04-18T02:35:55.928Z,7.27
2023-04-18T02:38:22.329Z,7.29
2023-04-18T02:40:51.722Z,7.32
2023-04-18T02:43:18.138Z,7.28
2023-04-18T02:45:44.554Z,7.25
2023-04-18T02:48:11.051Z,7.24
2023-04-18T02:50:37.750Z,7.22
2023-04-18T02:53:04.228Z,7.23
2023-04-18T02:55:42.916Z,7.20
2023-04-18T02:58:09.404Z,7.20
2023-04-18T03:01:14.001Z,7.14
2023-04-18T03:04:06.568Z,7.12
2023-04-18T03:06:38.028Z,7.09
2023-04-18T03:09:06.164Z,7.06
2023-04-18T03:11:35.459Z,7.06
2023-04-18T03:14:02.092Z,7.02
2023-04-18T03:16:36.238Z,7.05
2023-04-18T03:19:04.206Z,7.05
2023-04-18T03:21:31.709Z,7.03
2023-04-18T03:23:58.443Z,7.03
2023-04-18T03:26:25.655Z,7.01
2023-04-18T03:28:53.503Z,7.00
2023-04-18T03:31:20.229Z,6.98
2023-04-18T03:33:47.007Z,6.98
2023-04-18T03:36:18.929Z,6.98
2023-04-18T03:38:45.542Z,6.98
2023-04-18T03:41:12.252Z,6.98
2023-04-18T03:43:38.688Z,6.97
2023-04-18T03:46:05.212Z,6.95
2023-04-18T03:48:35.725Z,6.94
2023-04-18T03:51:05.722Z,6.93
2023-04-18T03:53:32.333Z,6.94
2023-04-18T03:55:58.754Z,6.91
2023-04-18T03:58:38.672Z,6.88
2023-04-18T04:01:06.533Z,6.85
2023-04-18T04:03:33.106Z,6.84
2023-04-18T04:05:59.568Z,6.82
2023-04-18T04:08:28.180Z,6.81
2023-04-18T04:10:54.886Z,6.81
2023-04-18T04:13:23.325Z,6.82
2023-04-18T04:15:50.241Z,6.82
2023-04-18T04:18:16.679Z,6.80
2023-04-18T04:20:45.922Z,6.80
2023-04-18T04:23:17.716Z,6.80
2023-04-18T04:25:46.320Z,6.81
2023-04-18T04:28:23.792Z,6.82
2023-04-18T04:30:59.253Z,6.79
2023-04-18T04:33:28.290Z,6.83
2023-04-18T04:36:01.087Z,6.84
2023-04-18T04:38:30.890Z,6.88
2023-04-18T04:40:58.390Z,6.89
2023-04-18T04:43:25.556Z,6.90
2023-04-18T04:45:52.996Z,6.89
2023-04-18T04:48:24.700Z,6.87
2023-04-18T04:50:54.897Z,6.91
2023-04-18T04:53:22.511Z,6.90
2023-04-18T04:55:50.864Z,6.89
2023-04-18T04:58:18.270Z,6.89
2023-04-18T05:01:07.676Z,6.89
2023-04-18T05:03:36.421Z,6.91
2023-04-18T05:06:04.074Z,6.90
2023-04-18T05:08:30.702Z,6.92
2023-04-18T05:10:57.107Z,6.97
2023-04-18T05:13:23.521Z,7.00
2023-04-18T05:15:49.979Z,7.02
2023-04-18T05:18:16.402Z,7.02
2023-04-18T05:20:42.801Z,7.05
2023-04-18T05:23:09.214Z,7.05
2023-04-18T05:25:36.744Z,7.10
2023-04-18T05:28:05.811Z,7.08
2023-04-18T05:30:32.257Z,7.09
2023-04-18T05:32:58.719Z,7.10
2023-04-18T05:35:25.165Z,7.10
2023-04-18T05:37:51.622Z,7.16
2023-04-18T05:40:19.146Z,7.18
2023-04-18T05:42:45.584Z,7.25
2023-04-18T05:45:12.103Z,7.27
2023-04-18T05:47:38.566Z,7.32
2023-04-18T05:50:05.720Z,7.40
2023-04-18T05:52:32.663Z,7.43
2023-04-18T05:54:59.317Z,7.47
2023-04-18T05:57:25.832Z,7.53
2023-04-18T05:59:52.304Z,7.58
2023-04-18T06:02:18.754Z,7.63
2023-04-18T06:04:45.589Z,7.69
2023-04-18T06:07:12.195Z,7.70
2023-04-18T06:09:38.619Z,7.75
2023-04-18T06:12:05.482Z,7.77
2023-04-18T06:14:32.127Z,7.76
2023-04-18T06:16:58.800Z,7.77
2023-04-18T06:19:25.412Z,7.76
2023-04-18T06:21:52.873Z,7.79
2023-04-18T06:24:19.300Z,7.80
2023-04-18T06:26:45.719Z,7.81
2023-04-18T06:29:12.166Z,7.83
2023-04-18T06:31:38.712Z,7.82
2023-04-18T06:34:06.417Z,7.77
2023-04-18T06:36:32.996Z,7.77
2023-04-18T06:38:59.416Z,7.76
2023-04-18T06:41:25.830Z,7.71
2023-04-18T06:44:02.764Z,7.73
2023-04-18T06:46:31.319Z,7.72
2023-04-18T06:48:57.955Z,7.71
2023-04-18T06:51:24.474Z,7.76
2023-04-18T06:53:52.905Z,7.83
2023-04-18T06:56:20.551Z,7.90
2023-04-18T06:58:47.772Z,7.93
2023-04-18T07:01:14.271Z,7.99
2023-04-18T07:03:40.798Z,8.06
2023-04-18T07:06:08.793Z,8.09
2023-04-18T07:08:35.581Z,8.12
2023-04-18T07:11:02.198Z,8.15
2023-04-18T07:13:28.784Z,8.16
2023-04-18T07:15:55.326Z,8.19
2023-04-18T07:18:34.113Z,8.17
2023-04-18T07:21:07.095Z,8.20
2023-04-18T07:23:33.615Z,8.20
2023-04-18T07:26:02.425Z,8.22
2023-04-18T07:28:29.462Z,8.27
2023-04-18T07:30:56.847Z,8.32
2023-04-18T07:33:24.035Z,8.44
2023-04-18T07:35:52.329Z,8.57
2023-04-18T07:38:18.883Z,8.70
2023-04-18T07:40:45.712Z,8.75
2023-04-18T07:43:12.100Z,8.78
2023-04-18T07:45:38.547Z,8.80
2023-04-18T07:48:05.752Z,8.79
2023-04-18T07:50:32.200Z,8.81
2023-04-18T07:52:58.607Z,8.77
2023-04-18T07:55:25.006Z,8.84
2023-04-18T07:57:51.472Z,8.86
2023-04-18T08:00:18.318Z,8.87
2023-04-18T08:02:45.433Z,8.92
2023-04-18T08:05:12.115Z,8.93
2023-04-18T08:07:38.714Z,8.94
2023-04-18T08:10:05.626Z,8.93
2023-04-18T08:12:32.108Z,8.95
2023-04-18T08:14:58.508Z,9.05
2023-04-18T08:17:24.937Z,9.10
2023-04-18T08:19:51.355Z,9.08
2023-04-18T08:22:17.821Z,9.22
2023-04-18T08:25:01.195Z,9.28
2023-04-18T08:27:31.347Z,9.31
2023-04-18T08:29:58.054Z,9.31
2023-04-18T08:32:24.505Z,9.30
2023-04-18T08:34:50.985Z,9.33
2023-04-18T08:37:17.429Z,9.37
2023-04-18T08:39:44.776Z,9.46
2023-04-18T08:42:11.674Z,9.56
2023-04-18T08:44:38.098Z,9.63
2023-04-18T08:47:04.776Z,9.63
2023-04-18T08:49:31.327Z,9.67
2023-04-18T08:52:01.049Z,9.76
2023-04-18T08:54:30.401Z,9.91
2023-04-18T08:57:07.295Z,9.99
2023-04-18T08:59:35.445Z,10.11
2023-04-18T09:02:04.084Z,10.26
2023-04-18T09:04:43.168Z,10.37
2023-04-18T09:07:16.146Z,10.40
2023-04-18T09:09:46.841Z,10.49
2023-04-18T09:12:22.496Z,10.54
2023-04-18T09:14:51.485Z,10.57
2023-04-18T09:17:41.392Z,10.63
2023-04-18T09:20:12.190Z,10.60
2023-04-18T09:22:51.239Z,10.55
2023-04-18T09:25:36.153Z,10.52
2023-04-18T09:28:04.603Z,10.41
2023-04-18T09:30:42.028Z,10.33
2023-04-18T09:33:10.106Z,10.31
2023-04-18T09:35:37.866Z,10.44
2023-04-18T09:38:05.696Z,10.66
2023-04-18T09:40:33.013Z,11.02
2023-04-18T09:42:59.492Z,11.21
2023-04-18T09:45:26.384Z,11.35
2023-04-18T09:47:53.823Z,11.42
2023-04-18T09:50:20.838Z,11.43
2023-04-18T09:52:48.342Z,11.34
2023-04-18T09:55:17.448Z,11.24
2023-04-18T09:57:46.854Z,11.15
2023-04-18T10:00:23.692Z,11.09
2023-04-18T10:02:58.533Z,10.96
2023-04-18T10:05:32.031Z,10.78
2023-04-18T10:07:58.621Z,10.70
2023-04-18T10:10:25.540Z,10.60
2023-04-18T10:12:55.720Z,10.53
2023-04-18T10:15:27.310Z,10.48
2023-04-18T10:18:04.459Z,10.44
2023-04-18T10:20:34.573Z,10.42
2023-04-18T10:23:36.115Z,10.46
2023-04-18T10:26:04.737Z,10.81
2023-04-18T10:28:57.881Z,11.21
2023-04-18T10:31:26.754Z,11.28
2023-04-18T10:34:07.003Z,11.26
2023-04-18T10:36:33.643Z,11.16
2023-04-18T10:39:21.688Z,11.08
2023-04-18T10:41:50.613Z,11.00
2023-04-18T10:44:19.462Z,10.98
2023-04-18T10:46:51.875Z,10.98
2023-04-18T10:49:19.392Z,11.03
2023-04-18T10:51:47.467Z,11.10
2023-04-18T10:54:20.984Z,11.22
2023-04-18T10:56:58.164Z,11.35
2023-04-18T10:59:26.636Z,11.36
2023-04-18T11:01:59.942Z,11.27
2023-04-18T11:04:26.570Z,11.16
2023-04-18T11:06:58.312Z,11.06
2023-04-18T11:09:25.102Z,10.99
2023-04-18T11:12:05.420Z,10.97
2023-04-18T11:14:46.492Z,10.94
2023-04-18T11:17:23.712Z,10.90
2023-04-18T11:19:51.670Z,10.93
2023-04-18T11:22:18.811Z,10.97
2023-04-18T11:24:45.405Z,11.07
2023-04-18T11:27:12.709Z,11.16
2023-04-18T11:29:39.166Z,11.25
2023-04-18T11:32:07.660Z,11.39
2023-04-18T11:34:35.587Z,11.67
2023-04-18T11:37:06.844Z,11.84
2023-04-18T11:39:43.142Z,11.94
2023-04-18T11:42:09.646Z,11.96
2023-04-18T11:44:39.544Z,11.89
2023-04-18T11:47:28.709Z,11.74
2023-04-18T11:49:59.190Z,11.59
2023-04-18T11:52:27.612Z,11.45
2023-04-18T11:54:54.554Z,11.35
2023-04-18T11:57:28.946Z,11.27
2023-04-18T11:59:57.840Z,11.20
2023-04-18T12:02:27.307Z,11.12
2023-04-18T12:04:56.949Z,11.11
2023-04-18T12:07:38.811Z,11.11
2023-04-18T12:10:30.554Z,11.12
2023-04-18T12:12:58.935Z,11.14
2023-04-18T12:15:28.123Z,11.14
2023-04-18T12:18:01.161Z,11.07
2023-04-18T12:20:52.380Z,11.03
2023-04-18T12:23:35.973Z,10.98
2023-04-18T12:26:04.148Z,10.93
2023-04-18T12:28:31.300Z,10.90
2023-04-18T12:30:58.957Z,10.95
2023-04-18T12:33:26.123Z,11.05
2023-04-18T12:35:52.847Z,11.23
2023-04-18T12:38:23.728Z,11.39
2023-04-18T12:40:51.598Z,11.47
2023-04-18T12:43:18.794Z,11.49
2023-04-18T12:45:46.414Z,11.58
2023-04-18T12:48:12.957Z,11.63
2023-04-18T12:50:39.378Z,11.66
2023-04-18T12:53:06.074Z,11.69
2023-04-18T12:55:32.785Z,11.65
2023-04-18T12:57:59.232Z,11.60
2023-04-18T13:00:28.361Z,11.55
2023-04-18T13:02:55.045Z,11.50
2023-04-18T13:05:24.919Z,11.46
2023-04-18T13:07:58.704Z,11.41
2023-04-18T13:10:31.649Z,11.33
2023-04-18T13:12:58.206Z,11.30
2023-04-18T13:15:24.764Z,11.29
2023-04-18T13:17:51.303Z,11.27
2023-04-18T13:20:17.822Z,11.24
2023-04-18T13:22:45.289Z,11.23
2023-04-18T13:25:11.782Z,11.20
2023-04-18T13:27:41.583Z,11.19
2023-04-18T13:30:10.389Z,11.18
2023-04-18T13:32:37.626Z,11.15
2023-04-18T13:35:04.500Z,11.19
2023-04-18T13:37:31.225Z,11.21
2023-04-18T13:39:57.830Z,11.24
2023-04-18T13:42:24.381Z,11.32
2023-04-18T13:44:50.755Z,11.38
2023-04-18T13:47:17.202Z,11.42
2023-04-18T13:49:43.604Z,11.46
2023-04-18T13:52:10.001Z,11.48
2023-04-18T13:54:37.541Z,11.48
2023-04-18T13:57:04.160Z,11.46
2023-04-18T13:59:32.274Z,11.45
2023-04-18T14:01:59.424Z,11.47
2023-04-18T14:04:27.012Z,11.48
2023-04-18T14:06:53.650Z,11.49
2023-04-18T14:09:20.092Z,11.52
2023-04-18T14:11:47.503Z,11.54
2023-04-18T14:14:14.630Z,11.58
2023-04-18T14:16:41.217Z,11.59
2023-04-18T14:19:07.691Z,11.65
2023-04-18T14:21:34.117Z,11.68
2023-04-18T14:24:00.778Z,11.70
2023-04-18T14:26:27.323Z,11.70
2023-04-18T14:28:53.701Z,11.65
2023-04-18T14:31:20.325Z,11.56
2023-04-18T14:33:46.778Z,11.49
2023-04-18T14:36:15.108Z,11.42
2023-04-18T14:38:42.032Z,11.39
2023-04-18T14:41:08.562Z,11.33
2023-04-18T14:43:35.202Z,11.30
2023-04-18T14:46:01.774Z,11.29
2023-04-18T14:48:28.315Z,11.25
2023-04-18T14:51:03.037Z,11.24
2023-04-18T14:53:29.710Z,11.22
2023-04-18T14:55:56.348Z,11.20
2023-04-18T14:58:22.984Z,11.19
2023-04-18T15:00:49.413Z,11.19
2023-04-18T15:03:16.612Z,11.21
2023-04-18T15:05:46.354Z,11.24
2023-04-18T15:08:14.390Z,11.25
2023-04-18T15:10:42.328Z,11.25
2023-04-18T15:13:09.771Z,11.27
2023-04-18T15:15:37.962Z,11.31
2023-04-18T15:18:04.697Z,11.30
2023-04-18T15:20:31.652Z,11.31
2023-04-18T15:22:58.087Z,11.32
2023-04-18T15:25:25.970Z,11.34
2023-04-18T15:27:52.697Z,11.38
2023-04-18T15:30:19.396Z,11.42
2023-04-18T15:32:45.975Z,11.44
2023-04-18T15:35:12.796Z,11.48
2023-04-18T15:37:39.317Z,11.52
2023-04-18T15:40:09.172Z,11.57
2023-04-18T15:42:35.785Z,11.55
2023-04-18T15:45:04.215Z,11.62
2023-04-18T15:47:33.802Z,11.61
2023-04-18T15:50:00.488Z,11.60
2023-04-18T15:52:26.947Z,11.58
2023-04-18T15:54:53.755Z,11.54
2023-04-18T15:57:20.989Z,11.53
2023-04-18T15:59:47.427Z,11.51
2023-04-18T16:02:13.986Z,11.47
2023-04-18T16:04:40.993Z,11.44
2023-04-18T16:07:08.212Z,11.37
2023-04-18T16:09:34.646Z,11.31
2023-04-18T16:12:03.115Z,11.27
2023-04-18T16:14:31.133Z,11.23
2023-04-18T16:16:58.673Z,11.16
2023-04-18T16:19:25.280Z,11.15
2023-04-18T16:21:51.876Z,11.11
2023-04-18T16:24:18.693Z,11.06
2023-04-18T16:26:45.158Z,11.04
2023-04-18T16:29:11.544Z,10.99
2023-04-18T16:31:38.289Z,10.95
2023-04-18T16:34:04.717Z,10.92
2023-04-18T16:36:34.126Z,10.91
2023-04-18T16:39:00.601Z,10.88
2023-04-18T16:41:27.218Z,10.84
2023-04-18T16:43:53.928Z,10.83
2023-04-18T16:46:20.373Z,10.83
2023-04-18T16:48:46.815Z,10.81
2023-04-18T16:51:13.351Z,10.80
2023-04-18T16:53:39.819Z,10.78
2023-04-18T16:56:07.841Z,10.79
2023-04-18T16:58:34.434Z,10.77
2023-04-18T17:01:03.962Z,10.77
2023-04-18T17:03:30.559Z,10.75
2023-04-18T17:05:57.242Z,10.77
2023-04-18T17:08:25.717Z,10.74
2023-04-18T17:10:52.860Z,10.68
2023-04-18T17:13:19.314Z,10.71
2023-04-18T17:15:46.038Z,10.72
2023-04-18T17:18:12.547Z,10.71
2023-04-18T17:20:38.971Z,10.67
2023-04-18T17:23:05.352Z,10.71
2023-04-18T17:25:31.849Z,10.74
2023-04-18T17:27:58.607Z,10.75
2023-04-18T17:30:25.046Z,10.77
2023-04-18T17:32:51.607Z,10.75
2023-04-18T17:35:18.196Z,10.75
2023-04-18T17:37:45.844Z,10.73
2023-04-18T17:40:13.207Z,10.74
2023-04-18T17:42:39.958Z,10.72
2023-04-18T17:45:08.323Z,10.70
2023-04-18T17:47:36.426Z,10.68
2023-04-18T17:50:03.999Z,10.64
2023-04-18T17:52:30.499Z,10.60
2023-04-18T17:54:58.566Z,10.56
2023-04-18T17:57:26.620Z,10.51
2023-04-18T17:59:53.331Z,10.53
2023-04-18T18:02:20.213Z,10.53
2023-04-18T18:04:47.132Z,10.43
2023-04-18T18:07:13.648Z,10.49
2023-04-18T18:09:41.562Z,10.47
2023-04-18T18:12:09.769Z,10.49
2023-04-18T18:14:36.429Z,10.48
2023-04-18T18:17:03.151Z,10.46
2023-04-18T18:19:29.614Z,10.45
2023-04-18T18:21:56.287Z,10.44
2023-04-18T18:24:25.051Z,10.44
2023-04-18T18:26:51.856Z,10.44
2023-04-18T18:29:19.225Z,10.40
2023-04-18T18:31:45.873Z,10.40
2023-04-18T18:34:12.435Z,10.38
2023-04-18T18:36:39.070Z,10.37
2023-04-18T18:39:05.599Z,10.33
2023-04-18T18:41:31.981Z,10.36
2023-04-18T18:43:58.436Z,10.34
2023-04-18T18:46:24.905Z,10.34
2023-04-18T18:48:51.893Z,10.32
2023-04-18T18:51:19.120Z,10.28
2023-04-18T18:53:46.557Z,10.29
2023-04-18T18:56:13.198Z,10.31
2023-04-18T18:58:40.357Z,10.30
2023-04-18T19:01:06.902Z,10.31
2023-04-18T19:03:34.590Z,10.30
2023-04-18T19:06:03.774Z,10.30
2023-04-18T19:08:30.808Z,10.30
2023-04-18T19:10:57.258Z,10.31
2023-04-18T19:13:24.074Z,10.25
2023-04-18T19:15:51.142Z,10.23
2023-04-18T19:18:21.260Z,10.18
2023-04-18T19:20:49.761Z,10.14
2023-04-18T19:23:19.593Z,10.14
2023-04-18T19:25:46.591Z,10.10
2023-04-18T19:28:14.343Z,10.08
2023-04-18T19:30:41.982Z,10.05
2023-04-18T19:33:08.535Z,10.03
2023-04-18T19:35:37.679Z,10.01
2023-04-18T19:38:04.424Z,9.98
2023-04-18T19:40:31.009Z,9.99
2023-04-18T19:42:57.879Z,9.99
2023-04-18T19:45:24.593Z,9.98
2023-04-18T19:47:51.051Z,9.95
2023-04-18T19:50:17.810Z,9.95
2023-04-18T19:52:44.235Z,9.95
2023-04-18T19:55:10.882Z,9.94
2023-04-18T19:57:39.441Z,9.92
2023-04-18T20:00:07.592Z,9.88
2023-04-18T20:02:40.218Z,9.90
2023-04-18T20:05:08.455Z,9.88
2023-04-18T20:07:35.787Z,9.82
2023-04-18T20:10:02.278Z,9.78
2023-04-18T20:12:28.810Z,9.75
2023-04-18T20:14:55.741Z,9.74
2023-04-18T20:17:22.290Z,9.69
2023-04-18T20:19:49.633Z,9.64
2023-04-18T20:22:16.604Z,9.63
2023-04-18T20:24:44.964Z,9.58
2023-04-18T20:27:12.186Z,9.55
2023-04-18T20:29:38.644Z,9.55
2023-04-18T20:32:05.730Z,9.53
2023-04-18T20:34:32.479Z,9.53
2023-04-18T20:36:59.958Z,9.48
2023-04-18T20:39:27.913Z,9.48
2023-04-18T20:41:57.387Z,9.47
2023-04-18T20:44:24.744Z,9.48
2023-04-18T20:46:53.357Z,9.47
2023-04-18T20:49:19.869Z,9.53
2023-04-18T20:51:46.321Z,9.52
2023-04-18T20:54:13.040Z,9.53
2023-04-18T20:56:39.881Z,9.52
2023-04-18T20:59:06.432Z,9.53
2023-04-18T21:01:32.906Z,9.53
2023-04-18T21:03:59.529Z,9.49
2023-04-18T21:06:27.180Z,9.48
2023-04-18T21:08:53.721Z,9.48
2023-04-18T21:11:20.737Z,9.46
2023-04-18T21:13:47.109Z,9.46
2023-04-18T21:16:13.535Z,9.44
2023-04-18T21:18:39.929Z,9.41
2023-04-18T21:21:07.354Z,9.42
2023-04-18T21:23:33.982Z,9.40
2023-04-18T21:26:00.546Z,9.40
2023-04-18T21:28:27.021Z,9.40
2023-04-18T21:30:53.496Z,9.38
2023-04-18T21:33:19.879Z,9.38
2023-04-18T21:35:46.262Z,9.38
2023-04-18T21:38:12.668Z,9.35
2023-04-18T21:40:39.089Z,9.36
2023-04-18T21:43:05.528Z,9.34
2023-04-18T21:45:32.113Z,9.34
2023-04-18T21:47:58.578Z,9.35
2023-04-18T21:50:25.252Z,9.34
2023-04-18T21:52:51.621Z,9.29
2023-04-18T21:55:18.168Z,9.26
2023-04-18T21:57:44.576Z,9.25
2023-04-18T22:00:12.689Z,9.25
2023-04-18T22:02:40.066Z,9.25
2023-04-18T22:05:08.742Z,9.24
2023-04-18T22:07:43.274Z,9.24
2023-04-18T22:10:13.313Z,9.23
2023-04-18T22:12:39.782Z,9.20
2023-04-18T22:15:06.553Z,9.19
2023-04-18T22:17:34.757Z,9.18
2023-04-18T22:20:01.141Z,9.20
2023-04-18T22:22:27.563Z,9.22
2023-04-18T22:24:53.939Z,9.22
2023-04-18T22:27:20.477Z,9.20
2023-04-18T22:29:46.852Z,9.18
2023-04-18T22:32:13.235Z,9.17
2023-04-18T22:34:39.699Z,9.15
2023-04-18T22:37:06.170Z,9.13
2023-04-18T22:39:32.620Z,9.10
2023-04-18T22:41:59.007Z,9.10
2023-04-18T22:44:25.390Z,9.09
2023-04-18T22:46:54.514Z,9.06
2023-04-18T22:49:22.090Z,9.09
2023-04-18T22:51:48.517Z,9.07
2023-04-18T22:54:15.177Z,9.06
2023-04-18T22:56:41.823Z,9.05
2023-04-18T22:59:08.214Z,9.03
2023-04-18T23:01:34.691Z,9.02
2023-04-18T23:04:01.475Z,9.02
2023-04-18T23:06:28.292Z,8.99
2023-04-18T23:08:54.673Z,8.99
2023-04-18T23:11:21.546Z,8.98
2023-04-18T23:13:47.934Z,8.96
2023-04-18T23:16:14.375Z,8.97
2023-04-18T23:18:40.867Z,8.96
2023-04-18T23:21:07.373Z,8.95
2023-04-18T23:23:33.815Z,8.95
2023-04-18T23:26:00.575Z,8.95
2023-04-18T23:28:27.037Z,8.94
2023-04-18T23:30:53.480Z,8.99
2023-04-18T23:33:19.869Z,8.99
2023-04-18T23:35:46.333Z,8.97
2023-04-18T23:38:12.792Z,9.00
2023-04-18T23:40:39.211Z,9.00
2023-04-18T23:43:05.860Z,9.01
2023-04-18T23:45:32.251Z,9.01
2023-04-18T23:47:58.672Z,8.99
2023-04-18T23:50:25.220Z,9.01
2023-04-18T23:52:51.667Z,8.97
2023-04-18T23:55:18.116Z,8.99
2023-04-18T23:57:44.517Z,8.97
